sensor_id;sensor_type;location;lat;lon;timestamp;pressure;altitude;pressure_sealevel;temperature;humidity
36260;BME280;22296;50.824;5.644;2023-05-22T00:01:50;100594.72;;;21.30;58.40
36260;BME280;22296;50.824;5.644;2023-05-22T00:04:17;100599.97;;;21.32;58.59
36260;BME280;22296;50.824;5.644;2023-05-22T00:06:47;100591.56;;;21.32;58.44
36260;BME280;22296;50.824;5.644;2023-05-22T00:09:14;100592.28;;;21.29;58.45
36260;BME280;22296;50.824;5.644;2023-05-22T00:11:41;100597.09;;;21.28;58.63
36260;BME280;22296;50.824;5.644;2023-05-22T00:14:08;100585.88;;;21.28;58.60
36260;BME280;22296;50.824;5.644;2023-05-22T00:16:35;100586.69;;;21.29;58.46
36260;BME280;22296;50.824;5.644;2023-05-22T00:19:02;100593.91;;;21.30;58.34
36260;BME280;22296;50.824;5.644;2023-05-22T00:21:29;100585.47;;;21.30;58.76
36260;BME280;22296;50.824;5.644;2023-05-22T00:24:00;100587.03;;;21.27;58.48
36260;BME280;22296;50.824;5.644;2023-05-22T00:26:27;100587.84;;;21.28;58.64
36260;BME280;22296;50.824;5.644;2023-05-22T00:28:54;100578.25;;;21.29;58.54
36260;BME280;22296;50.824;5.644;2023-05-22T00:31:21;100575.81;;;21.27;58.48
36260;BME280;22296;50.824;5.644;2023-05-22T00:33:49;100566.59;;;21.27;58.55
36260;BME280;22296;50.824;5.644;2023-05-22T00:36:16;100573.09;;;21.31;58.48
36260;BME280;22296;50.824;5.644;2023-05-22T00:38:44;100567.47;;;21.31;58.24
36260;BME280;22296;50.824;5.644;2023-05-22T00:41:12;100562.59;;;21.28;58.41
36260;BME280;22296;50.824;5.644;2023-05-22T00:43:38;100567.47;;;21.31;58.36
36260;BME280;22296;50.824;5.644;2023-05-22T00:46:05;100573.81;;;21.28;58.25
36260;BME280;22296;50.824;5.644;2023-05-22T00:48:35;100577.06;;;21.30;58.37
36260;BME280;22296;50.824;5.644;2023-05-22T00:51:02;100576.28;;;21.29;58.13
36260;BME280;22296;50.824;5.644;2023-05-22T00:53:30;100577.00;;;21.26;58.50
36260;BME280;22296;50.824;5.644;2023-05-22T00:55:57;100576.19;;;21.26;58.35
36260;BME280;22296;50.824;5.644;2023-05-22T00:58:25;100566.59;;;21.27;58.35
36260;BME280;22296;50.824;5.644;2023-05-22T01:00:53;100562.59;;;21.28;58.50
36260;BME280;22296;50.824;5.644;2023-05-22T01:03:21;100575.28;;;21.22;58.50
36260;BME280;22296;50.824;5.644;2023-05-22T01:05:53;100576.94;;;21.23;58.65
36260;BME280;22296;50.824;5.644;2023-05-22T01:08:21;100565.72;;;21.23;58.63
36260;BME280;22296;50.824;5.644;2023-05-22T01:11:07;100564.81;;;21.19;58.55
36260;BME280;22296;50.824;5.644;2023-05-22T01:22:09;100550.78;;;21.19;58.71
36260;BME280;22296;50.824;5.644;2023-05-22T01:25:11;100561.56;;;21.17;58.63
36260;BME280;22296;50.824;5.644;2023-05-22T01:28:16;100561.19;;;21.18;58.57
36260;BME280;22296;50.824;5.644;2023-05-22T01:31:00;100575.28;;;21.22;58.72
36260;BME280;22296;50.824;5.644;2023-05-22T01:33:33;100572.06;;;21.20;58.57
36260;BME280;22296;50.824;5.644;2023-05-22T01:36:02;100574.44;;;21.18;58.68
36260;BME280;22296;50.824;5.644;2023-05-22T01:38:32;100568.34;;;21.16;58.88
36260;BME280;22296;50.824;5.644;2023-05-22T01:41:00;100569.09;;;21.13;58.90
36260;BME280;22296;50.824;5.644;2023-05-22T01:43:27;100579.13;;;21.14;58.83
36260;BME280;22296;50.824;5.644;2023-05-22T01:45:54;100571.03;;;21.09;58.92
36260;BME280;22296;50.824;5.644;2023-05-22T01:48:20;100577.44;;;21.09;59.04
36260;BME280;22296;50.824;5.644;2023-05-22T01:50:50;100572.63;;;21.10;58.99
36260;BME280;22296;50.824;5.644;2023-05-22T01:53:27;100570.22;;;21.08;59.05
36260;BME280;22296;50.824;5.644;2023-05-22T01:56:02;100563.78;;;21.08;59.19
36260;BME280;22296;50.824;5.644;2023-05-22T01:58:48;100567.72;;;21.07;59.07
36260;BME280;22296;50.824;5.644;2023-05-22T02:01:19;100569.38;;;21.08;59.11
36260;BME280;22296;50.824;5.644;2023-05-22T02:03:48;100574.53;;;21.06;59.06
36260;BME280;22296;50.824;5.644;2023-05-22T02:06:22;100576.63;;;21.09;58.86
36260;BME280;22296;50.824;5.644;2023-05-22T02:08:51;100574.66;;;21.09;58.79
36260;BME280;22296;50.824;5.644;2023-05-22T02:11:21;100580.25;;;21.09;59.10
36260;BME280;22296;50.824;5.644;2023-05-22T02:13:52;100577.69;;;21.04;59.19
36260;BME280;22296;50.824;5.644;2023-05-22T02:16:19;100572.06;;;21.04;59.30
36260;BME280;22296;50.824;5.644;2023-05-22T02:18:47;100577.34;;;21.06;59.07
36260;BME280;22296;50.824;5.644;2023-05-22T02:21:14;100579.31;;;21.05;59.47
36260;BME280;22296;50.824;5.644;2023-05-22T02:23:41;100582.13;;;21.05;59.18
36260;BME280;22296;50.824;5.644;2023-05-22T02:26:08;100572.47;;;21.02;59.15
36260;BME280;22296;50.824;5.644;2023-05-22T02:28:35;100572.03;;;21.00;59.22
36260;BME280;22296;50.824;5.644;2023-05-22T02:31:02;100581.22;;;21.01;59.13
36260;BME280;22296;50.824;5.644;2023-05-22T02:33:29;100581.22;;;21.01;59.14
36260;BME280;22296;50.824;5.644;2023-05-22T02:35:56;100570.00;;;21.01;59.22
36260;BME280;22296;50.824;5.644;2023-05-22T02:38:23;100571.66;;;21.02;59.12
36260;BME280;22296;50.824;5.644;2023-05-22T02:40:50;100568.41;;;21.00;59.23
36260;BME280;22296;50.824;5.644;2023-05-22T02:43:17;100574.00;;;21.00;59.12
36260;BME280;22296;50.824;5.644;2023-05-22T02:45:44;100565.94;;;20.98;59.44
36260;BME280;22296;50.824;5.644;2023-05-22T02:48:11;100567.16;;;20.97;58.99
36260;BME280;22296;50.824;5.644;2023-05-22T02:50:38;100565.94;;;20.98;59.20
36260;BME280;22296;50.824;5.644;2023-05-22T02:53:06;100564.34;;;20.97;59.19
36260;BME280;22296;50.824;5.644;2023-05-22T02:55:33;100560.72;;;20.97;59.29
36260;BME280;22296;50.824;5.644;2023-05-22T02:58:01;100562.72;;;20.96;59.05
36260;BME280;22296;50.824;5.644;2023-05-22T03:00:28;100555.47;;;20.95;59.22
36260;BME280;22296;50.824;5.644;2023-05-22T03:02:55;100560.25;;;20.95;59.15
36260;BME280;22296;50.824;5.644;2023-05-22T03:05:22;100553.06;;;20.94;59.39
36260;BME280;22296;50.824;5.644;2023-05-22T03:07:50;100549.88;;;20.95;59.15
36260;BME280;22296;50.824;5.644;2023-05-22T03:10:18;100557.84;;;20.93;59.28
36260;BME280;22296;50.824;5.644;2023-05-22T03:12:45;100559.47;;;20.94;59.22
36260;BME280;22296;50.824;5.644;2023-05-22T03:15:12;100557.84;;;20.93;59.26
36260;BME280;22296;50.824;5.644;2023-05-22T03:17:40;100560.22;;;20.91;59.26
36260;BME280;22296;50.824;5.644;2023-05-22T03:20:08;100563.00;;;20.91;59.30
36260;BME280;22296;50.824;5.644;2023-05-22T03:22:35;100565.81;;;20.91;59.27
36260;BME280;22296;50.824;5.644;2023-05-22T03:25:02;100565.81;;;20.91;59.55
36260;BME280;22296;50.824;5.644;2023-05-22T03:27:31;100560.22;;;20.91;59.22
36260;BME280;22296;50.824;5.644;2023-05-22T03:29:59;100552.97;;;20.90;59.39
36260;BME280;22296;50.824;5.644;2023-05-22T03:32:27;100554.13;;;20.89;59.29
36260;BME280;22296;50.824;5.644;2023-05-22T03:34:54;100558.97;;;20.89;59.33
36260;BME280;22296;50.824;5.644;2023-05-22T03:37:21;100553.69;;;20.87;59.30
36260;BME280;22296;50.824;5.644;2023-05-22T03:39:48;100555.34;;;20.88;59.52
36260;BME280;22296;50.824;5.644;2023-05-22T03:42:20;100566.53;;;20.88;59.24
36260;BME280;22296;50.824;5.644;2023-05-22T03:44:47;100564.09;;;20.87;59.34
36260;BME280;22296;50.824;5.644;2023-05-22T03:47:16;100571.34;;;20.88;59.57
36260;BME280;22296;50.824;5.644;2023-05-22T03:49:44;100566.91;;;20.87;59.23
36260;BME280;22296;50.824;5.644;2023-05-22T03:52:11;100576.13;;;20.87;59.30
36260;BME280;22296;50.824;5.644;2023-05-22T03:54:38;100571.69;;;20.86;59.28
36260;BME280;22296;50.824;5.644;2023-05-22T03:57:05;100569.69;;;20.87;59.32
36260;BME280;22296;50.824;5.644;2023-05-22T03:59:32;100572.06;;;20.85;59.31
36260;BME280;22296;50.824;5.644;2023-05-22T04:01:59;100574.50;;;20.86;59.21
36260;BME280;22296;50.824;5.644;2023-05-22T04:04:27;100561.69;;;20.85;59.46
36260;BME280;22296;50.824;5.644;2023-05-22T04:06:54;100571.25;;;20.84;59.45
36260;BME280;22296;50.824;5.644;2023-05-22T04:09:25;100564.81;;;20.84;59.54
36260;BME280;22296;50.824;5.644;2023-05-22T04:11:56;100576.84;;;20.84;59.43
36260;BME280;22296;50.824;5.644;2023-05-22T04:14:23;100567.28;;;20.85;59.42
36260;BME280;22296;50.824;5.644;2023-05-22T04:16:50;100574.88;;;20.85;59.54
36260;BME280;22296;50.824;5.644;2023-05-22T04:19:16;100576.84;;;20.84;59.29
36260;BME280;22296;50.824;5.644;2023-05-22T04:21:43;100576.50;;;20.86;59.48
36260;BME280;22296;50.824;5.644;2023-05-22T04:24:10;100571.25;;;20.84;59.48
36260;BME280;22296;50.824;5.644;2023-05-22T04:26:37;100570.91;;;20.86;59.52
36260;BME280;22296;50.824;5.644;2023-05-22T04:29:07;100576.50;;;20.86;59.47
36260;BME280;22296;50.824;5.644;2023-05-22T04:31:36;100576.13;;;20.87;59.52
36260;BME280;22296;50.824;5.644;2023-05-22T04:34:04;100586.53;;;20.87;59.48
36260;BME280;22296;50.824;5.644;2023-05-22T04:36:30;100590.13;;;20.87;59.49
36260;BME280;22296;50.824;5.644;2023-05-22T04:38:57;100585.69;;;20.86;59.49
36260;BME280;22296;50.824;5.644;2023-05-22T04:41:25;100583.28;;;20.85;59.48
36260;BME280;22296;50.824;5.644;2023-05-22T04:43:53;100586.47;;;20.83;59.57
36260;BME280;22296;50.824;5.644;2023-05-22T04:46:20;100597.28;;;20.85;59.67
36260;BME280;22296;50.824;5.644;2023-05-22T04:48:47;100596.03;;;20.82;59.71
36260;BME280;22296;50.824;5.644;2023-05-22T04:51:14;100591.16;;;20.79;59.63
36260;BME280;22296;50.824;5.644;2023-05-22T04:53:41;100593.59;;;20.81;59.68
36260;BME280;22296;50.824;5.644;2023-05-22T04:56:08;100591.16;;;20.79;59.67
36260;BME280;22296;50.824;5.644;2023-05-22T04:58:36;100589.53;;;20.78;59.88
36260;BME280;22296;50.824;5.644;2023-05-22T05:01:04;100582.31;;;20.77;59.63
36260;BME280;22296;50.824;5.644;2023-05-22T05:03:32;100586.28;;;20.76;59.58
36260;BME280;22296;50.824;5.644;2023-05-22T05:05:59;100588.72;;;20.78;59.68
36260;BME280;22296;50.824;5.644;2023-05-22T05:08:26;100605.91;;;20.76;59.80
36260;BME280;22296;50.824;5.644;2023-05-22T05:10:53;100597.06;;;20.74;59.83
36260;BME280;22296;50.824;5.644;2023-05-22T05:13:21;100615.47;;;20.75;59.79
36260;BME280;22296;50.824;5.644;2023-05-22T05:15:48;100607.06;;;20.75;59.49
36260;BME280;22296;50.824;5.644;2023-05-22T05:18:15;100615.84;;;20.74;59.85
36260;BME280;22296;50.824;5.644;2023-05-22T05:20:42;100609.44;;;20.73;59.73
36260;BME280;22296;50.824;5.644;2023-05-22T05:23:09;100612.25;;;20.73;59.64
36260;BME280;22296;50.824;5.644;2023-05-22T05:25:36;100607.81;;;20.72;59.78
36260;BME280;22296;50.824;5.644;2023-05-22T05:28:07;100611.81;;;20.71;59.61
36260;BME280;22296;50.824;5.644;2023-05-22T05:30:38;100610.16;;;20.70;59.74
36260;BME280;22296;50.824;5.644;2023-05-22T05:33:23;100615.78;;;20.70;59.62
36260;BME280;22296;50.824;5.644;2023-05-22T05:36:02;100611.81;;;20.71;59.66
36260;BME280;22296;50.824;5.644;2023-05-22T05:38:30;100609.69;;;20.84;59.68
36260;BME280;22296;50.824;5.644;2023-05-22T05:40:58;100614.88;;;21.01;59.20
36260;BME280;22296;50.824;5.644;2023-05-22T05:43:25;100613.31;;;21.03;59.60
36260;BME280;22296;50.824;5.644;2023-05-22T05:45:57;100609.78;;;21.07;59.25
36260;BME280;22296;50.824;5.644;2023-05-22T05:48:24;100606.38;;;21.13;58.93
36260;BME280;22296;50.824;5.644;2023-05-22T05:50:51;100610.06;;;21.17;59.08
36260;BME280;22296;50.824;5.644;2023-05-22T05:53:18;100619.00;;;21.23;58.84
36260;BME280;22296;50.824;5.644;2023-05-22T05:55:51;100613.25;;;21.35;58.36
36260;BME280;22296;50.824;5.644;2023-05-22T05:58:19;100624.53;;;21.38;58.56
36260;BME280;22296;50.824;5.644;2023-05-22T06:01:11;100621.69;;;21.35;58.49
36260;BME280;22296;50.824;5.644;2023-05-22T06:03:39;100616.56;;;21.40;58.05
36260;BME280;22296;50.824;5.644;2023-05-22T06:06:10;100621.94;;;21.30;58.44
36260;BME280;22296;50.824;5.644;2023-05-22T06:09:16;100624.22;;;21.24;58.40
36260;BME280;22296;50.824;5.644;2023-05-22T06:12:21;100625.03;;;21.25;58.38
36260;BME280;22296;50.824;5.644;2023-05-22T06:14:48;100631.41;;;21.22;58.18
36260;BME280;22296;50.824;5.644;2023-05-22T06:17:15;100629.78;;;21.21;58.45
36260;BME280;22296;50.824;5.644;2023-05-22T06:19:43;100630.56;;;21.21;58.18
36260;BME280;22296;50.824;5.644;2023-05-22T06:22:11;100633.75;;;21.20;58.23
36260;BME280;22296;50.824;5.644;2023-05-22T06:24:41;100632.13;;;21.19;58.25
36260;BME280;22296;50.824;5.644;2023-05-22T06:27:12;100630.13;;;21.19;58.23
36260;BME280;22296;50.824;5.644;2023-05-22T06:29:40;100630.53;;;21.18;58.31
36260;BME280;22296;50.824;5.644;2023-05-22T06:32:07;100626.81;;;21.14;58.59
36260;BME280;22296;50.824;5.644;2023-05-22T06:34:36;100633.59;;;21.13;58.92
36260;BME280;22296;50.824;5.644;2023-05-22T06:37:03;100647.41;;;21.21;58.31
36260;BME280;22296;50.824;5.644;2023-05-22T06:39:35;100638.78;;;21.30;58.25
36260;BME280;22296;50.824;5.644;2023-05-22T06:42:10;100642.06;;;21.32;58.15
36260;BME280;22296;50.824;5.644;2023-05-22T06:44:55;100651.03;;;21.41;58.12
36260;BME280;22296;50.824;5.644;2023-05-22T06:47:29;100653.41;;;21.39;58.14
36260;BME280;22296;50.824;5.644;2023-05-22T06:49:56;100656.66;;;21.41;58.16
36260;BME280;22296;50.824;5.644;2023-05-22T06:52:23;100655.03;;;21.40;58.02
36260;BME280;22296;50.824;5.644;2023-05-22T06:54:50;100656.66;;;21.41;57.96
36260;BME280;22296;50.824;5.644;2023-05-22T06:57:17;100664.78;;;21.46;58.06
36260;BME280;22296;50.824;5.644;2023-05-22T06:59:44;100665.81;;;21.38;58.34
36260;BME280;22296;50.824;5.644;2023-05-22T07:02:31;100668.47;;;21.31;58.34
36260;BME280;22296;50.824;5.644;2023-05-22T07:05:18;100664.41;;;21.28;58.38
36260;BME280;22296;50.824;5.644;2023-05-22T07:07:54;100668.75;;;21.26;58.33
36260;BME280;22296;50.824;5.644;2023-05-22T07:10:21;100669.13;;;21.24;58.21
36260;BME280;22296;50.824;5.644;2023-05-22T07:12:47;100665.88;;;21.22;58.41
36260;BME280;22296;50.824;5.644;2023-05-22T07:15:14;100673.03;;;21.20;58.61
36260;BME280;22296;50.824;5.644;2023-05-22T07:17:47;100678.19;;;21.18;58.54
36260;BME280;22296;50.824;5.644;2023-05-22T07:20:16;100682.16;;;21.17;58.55
36260;BME280;22296;50.824;5.644;2023-05-22T07:22:52;100684.16;;;21.16;58.66
36260;BME280;22296;50.824;5.644;2023-05-22T07:25:19;100688.50;;;21.14;58.58
36260;BME280;22296;50.824;5.644;2023-05-22T07:27:46;100693.69;;;21.12;58.63
36260;BME280;22296;50.824;5.644;2023-05-22T07:30:13;100700.91;;;21.13;58.56
36260;BME280;22296;50.824;5.644;2023-05-22T07:32:40;100697.66;;;21.11;58.56
36260;BME280;22296;50.824;5.644;2023-05-22T07:35:07;100696.84;;;21.10;58.67
36260;BME280;22296;50.824;5.644;2023-05-22T07:37:36;100700.03;;;21.09;58.56
36260;BME280;22296;50.824;5.644;2023-05-22T07:40:04;100700.03;;;21.09;58.70
36260;BME280;22296;50.824;5.644;2023-05-22T07:42:35;100700.03;;;21.09;58.55
36260;BME280;22296;50.824;5.644;2023-05-22T07:45:03;100702.00;;;21.08;58.52
36260;BME280;22296;50.824;5.644;2023-05-22T07:47:30;100705.63;;;21.09;58.64
36260;BME280;22296;50.824;5.644;2023-05-22T07:49:57;100698.38;;;21.08;58.64
36260;BME280;22296;50.824;5.644;2023-05-22T07:52:24;100705.13;;;21.07;58.60
36260;BME280;22296;50.824;5.644;2023-05-22T07:54:51;100703.53;;;21.06;58.56
36260;BME280;22296;50.824;5.644;2023-05-22T07:57:19;100707.16;;;21.06;58.56
36260;BME280;22296;50.824;5.644;2023-05-22T07:59:46;100717.53;;;21.06;58.56
36260;BME280;22296;50.824;5.644;2023-05-22T08:02:13;100715.09;;;21.04;58.47
36260;BME280;22296;50.824;5.644;2023-05-22T08:04:40;100718.25;;;21.02;58.57
36260;BME280;22296;50.824;5.644;2023-05-22T08:07:07;100723.06;;;21.02;58.67
36260;BME280;22296;50.824;5.644;2023-05-22T08:09:33;100718.25;;;21.02;58.76
36260;BME280;22296;50.824;5.644;2023-05-22T08:12:01;100720.63;;;21.00;58.69
36260;BME280;22296;50.824;5.644;2023-05-22T08:14:29;100722.25;;;21.01;58.70
36260;BME280;22296;50.824;5.644;2023-05-22T08:16:56;100712.22;;;21.00;58.69
36260;BME280;22296;50.824;5.644;2023-05-22T08:19:24;100722.25;;;21.01;58.51
36260;BME280;22296;50.824;5.644;2023-05-22T08:21:51;100717.81;;;21.00;58.58
36260;BME280;22296;50.824;5.644;2023-05-22T08:24:24;100719.44;;;21.01;58.49
36260;BME280;22296;50.824;5.644;2023-05-22T08:26:56;100722.25;;;21.01;58.65
36260;BME280;22296;50.824;5.644;2023-05-22T08:29:27;100716.63;;;21.01;58.56
36260;BME280;22296;50.824;5.644;2023-05-22T08:31:54;100727.03;;;21.01;58.54
36260;BME280;22296;50.824;5.644;2023-05-22T08:34:24;100719.00;;;20.99;58.65
36260;BME280;22296;50.824;5.644;2023-05-22T08:36:51;100709.41;;;21.00;58.64
36260;BME280;22296;50.824;5.644;2023-05-22T08:39:18;100712.22;;;21.00;58.62
36260;BME280;22296;50.824;5.644;2023-05-22T08:41:45;100713.38;;;20.99;58.52
36260;BME280;22296;50.824;5.644;2023-05-22T08:44:13;100715.03;;;21.00;58.46
36260;BME280;22296;50.824;5.644;2023-05-22T08:46:40;100715.03;;;21.00;58.54
36260;BME280;22296;50.824;5.644;2023-05-22T08:49:13;100720.63;;;21.00;58.50
36260;BME280;22296;50.824;5.644;2023-05-22T08:51:44;100716.19;;;20.99;58.60
36260;BME280;22296;50.824;5.644;2023-05-22T08:54:12;100712.56;;;20.99;58.72
36260;BME280;22296;50.824;5.644;2023-05-22T08:56:40;100714.22;;;21.00;58.51
36260;BME280;22296;50.824;5.644;2023-05-22T08:59:21;100719.00;;;20.99;58.62
36260;BME280;22296;50.824;5.644;2023-05-22T09:01:48;100712.56;;;20.99;58.63
36260;BME280;22296;50.824;5.644;2023-05-22T09:04:17;100712.22;;;21.00;58.59
36260;BME280;22296;50.824;5.644;2023-05-22T09:06:48;100716.19;;;20.99;58.76
36260;BME280;22296;50.824;5.644;2023-05-22T09:09:16;100718.19;;;20.99;58.55
36260;BME280;22296;50.824;5.644;2023-05-22T09:11:43;100724.59;;;20.99;58.43
36260;BME280;22296;50.824;5.644;2023-05-22T09:14:10;100718.19;;;20.99;58.63
36260;BME280;22296;50.824;5.644;2023-05-22T09:16:48;100724.59;;;20.99;58.58
36260;BME280;22296;50.824;5.644;2023-05-22T09:19:15;100717.34;;;20.98;58.56
36260;BME280;22296;50.824;5.644;2023-05-22T09:21:42;100722.16;;;20.98;58.56
36260;BME280;22296;50.824;5.644;2023-05-22T09:24:13;100722.16;;;20.98;58.68
36260;BME280;22296;50.824;5.644;2023-05-22T09:26:40;100720.16;;;20.98;58.71
36260;BME280;22296;50.824;5.644;2023-05-22T09:29:07;100711.75;;;20.98;58.64
36260;BME280;22296;50.824;5.644;2023-05-22T09:31:41;100719.00;;;20.99;58.50
36260;BME280;22296;50.824;5.644;2023-05-22T09:34:10;100719.00;;;20.99;58.52
36260;BME280;22296;50.824;5.644;2023-05-22T09:36:39;100716.53;;;20.98;58.64
36260;BME280;22296;50.824;5.644;2023-05-22T09:39:07;100719.72;;;20.96;58.66
36260;BME280;22296;50.824;5.644;2023-05-22T09:41:37;100717.34;;;20.98;58.50
36260;BME280;22296;50.824;5.644;2023-05-22T09:44:13;100722.97;;;20.98;58.46
36260;BME280;22296;50.824;5.644;2023-05-22T09:46:43;100723.78;;;20.99;58.55
36260;BME280;22296;50.824;5.644;2023-05-22T09:49:10;100724.16;;;20.97;58.32
36260;BME280;22296;50.824;5.644;2023-05-22T09:51:44;100722.97;;;20.98;58.68
36260;BME280;22296;50.824;5.644;2023-05-22T09:54:14;100722.97;;;20.98;58.45
36260;BME280;22296;50.824;5.644;2023-05-22T09:56:43;100725.78;;;20.98;58.45
36260;BME280;22296;50.824;5.644;2023-05-22T09:59:11;100729.38;;;20.99;58.57
36260;BME280;22296;50.824;5.644;2023-05-22T10:01:40;100722.16;;;20.98;58.48
36260;BME280;22296;50.824;5.644;2023-05-22T10:04:11;100728.56;;;20.98;58.45
36260;BME280;22296;50.824;5.644;2023-05-22T10:06:39;100724.59;;;20.99;58.38
36260;BME280;22296;50.824;5.644;2023-05-22T10:09:11;100726.59;;;21.15;58.19
36260;BME280;22296;50.824;5.644;2023-05-22T10:11:45;100726.03;;;21.25;58.33
36260;BME280;22296;50.824;5.644;2023-05-22T10:14:13;100727.75;;;21.29;58.41
36260;BME280;22296;50.824;5.644;2023-05-22T10:16:41;100732.97;;;21.31;58.18
36260;BME280;22296;50.824;5.644;2023-05-22T10:19:11;100727.81;;;21.33;58.08
36260;BME280;22296;50.824;5.644;2023-05-22T10:21:40;100727.81;;;21.33;58.08
36260;BME280;22296;50.824;5.644;2023-05-22T10:24:07;100728.75;;;21.21;58.06
36260;BME280;22296;50.824;5.644;2023-05-22T10:26:35;100724.25;;;21.17;58.35
36260;BME280;22296;50.824;5.644;2023-05-22T10:29:10;100725.41;;;21.16;58.46
36260;BME280;22296;50.824;5.644;2023-05-22T10:32:11;100721.00;;;21.15;58.34
36260;BME280;22296;50.824;5.644;2023-05-22T10:35:04;100726.59;;;21.15;58.31
36260;BME280;22296;50.824;5.644;2023-05-22T10:37:48;100723.34;;;21.13;58.36
36260;BME280;22296;50.824;5.644;2023-05-22T10:40:31;100731.31;;;21.11;58.54
36260;BME280;22296;50.824;5.644;2023-05-22T10:42:59;100723.28;;;21.09;58.42
36260;BME280;22296;50.824;5.644;2023-05-22T10:45:27;100722.47;;;21.09;58.47
36260;BME280;22296;50.824;5.644;2023-05-22T10:48:02;100723.28;;;21.09;58.44
36260;BME280;22296;50.824;5.644;2023-05-22T10:50:30;100712.06;;;21.09;58.41
36260;BME280;22296;50.824;5.644;2023-05-22T10:55:53;100714.03;;;21.09;58.50
36260;BME280;22296;50.824;5.644;2023-05-22T10:58:27;100712.84;;;21.10;58.51
36260;BME280;22296;50.824;5.644;2023-05-22T11:01:17;100716.84;;;21.09;58.54
36260;BME280;22296;50.824;5.644;2023-05-22T11:06:33;100716.84;;;21.09;58.41
36260;BME280;22296;50.824;5.644;2023-05-22T11:09:31;100713.53;;;21.07;58.37
36260;BME280;22296;50.824;5.644;2023-05-22T11:14:54;100706.06;;;21.11;60.66
36260;BME280;22296;50.824;5.644;2023-05-22T11:17:29;100713.78;;;21.33;59.18
36260;BME280;22296;50.824;5.644;2023-05-22T11:20:03;100705.69;;;21.47;59.72
36260;BME280;22296;50.824;5.644;2023-05-22T11:22:41;100702.13;;;21.50;60.10
36260;BME280;22296;50.824;5.644;2023-05-22T11:25:10;100705.38;;;21.33;59.17
36260;BME280;22296;50.824;5.644;2023-05-22T11:27:38;100710.00;;;21.25;58.89
36260;BME280;22296;50.824;5.644;2023-05-22T11:30:07;100709.94;;;21.22;58.92
36260;BME280;22296;50.824;5.644;2023-05-22T11:32:39;100707.50;;;21.20;59.02
36260;BME280;22296;50.824;5.644;2023-05-22T11:35:07;100705.88;;;21.19;58.74
36260;BME280;22296;50.824;5.644;2023-05-22T11:37:40;100707.03;;;21.18;58.87
36260;BME280;22296;50.824;5.644;2023-05-22T11:40:08;100710.66;;;21.19;58.84
36260;BME280;22296;50.824;5.644;2023-05-22T11:42:35;100701.81;;;21.17;58.82
36260;BME280;22296;50.824;5.644;2023-05-22T11:45:03;100710.22;;;21.17;58.78
36260;BME280;22296;50.824;5.644;2023-05-22T11:47:30;100705.78;;;21.16;58.74
36260;BME280;22296;50.824;5.644;2023-05-22T11:49:58;100702.97;;;21.16;58.82
36260;BME280;22296;50.824;5.644;2023-05-22T11:52:32;100698.56;;;21.15;58.89
36260;BME280;22296;50.824;5.644;2023-05-22T11:54:59;100704.97;;;21.15;58.84
36260;BME280;22296;50.824;5.644;2023-05-22T11:57:26;100688.94;;;21.16;58.64
36260;BME280;22296;50.824;5.644;2023-05-22T11:59:53;100688.13;;;21.15;58.79
36260;BME280;22296;50.824;5.644;2023-05-22T12:02:20;100703.34;;;21.14;58.77
36260;BME280;22296;50.824;5.644;2023-05-22T12:04:53;100698.56;;;21.15;58.68
36260;BME280;22296;50.824;5.644;2023-05-22T12:07:20;100698.56;;;21.15;58.68
36260;BME280;22296;50.824;5.644;2023-05-22T12:09:48;100703.34;;;21.14;58.60
36260;BME280;22296;50.824;5.644;2023-05-22T12:12:15;100694.56;;;21.16;58.69
36260;BME280;22296;50.824;5.644;2023-05-22T12:14:45;100703.34;;;21.14;58.72
36260;BME280;22296;50.824;5.644;2023-05-22T12:17:13;100698.56;;;21.15;58.67
36260;BME280;22296;50.824;5.644;2023-05-22T12:19:40;100700.16;;;21.16;58.62
36260;BME280;22296;50.824;5.644;2023-05-22T12:22:08;100697.38;;;21.16;58.75
36260;BME280;22296;50.824;5.644;2023-05-22T12:24:42;100688.94;;;21.16;58.65
36260;BME280;22296;50.824;5.644;2023-05-22T12:27:13;100693.75;;;21.15;58.63
36260;BME280;22296;50.824;5.644;2023-05-22T12:29:41;100689.41;;;21.18;58.54
36260;BME280;22296;50.824;5.644;2023-05-22T12:32:09;100696.19;;;21.17;58.73
36260;BME280;22296;50.824;5.644;2023-05-22T12:34:44;100696.19;;;21.17;58.45
36260;BME280;22296;50.824;5.644;2023-05-22T12:37:22;100689.78;;;21.16;58.50
36260;BME280;22296;50.824;5.644;2023-05-22T12:39:55;100690.59;;;21.17;58.50
36260;BME280;22296;50.824;5.644;2023-05-22T12:42:23;100686.63;;;21.18;58.51
36260;BME280;22296;50.824;5.644;2023-05-22T12:44:54;100691.41;;;21.17;58.40
36260;BME280;22296;50.824;5.644;2023-05-22T12:47:22;100688.22;;;21.19;58.54
36260;BME280;22296;50.824;5.644;2023-05-22T12:49:49;100692.22;;;21.18;58.47
36260;BME280;22296;50.824;5.644;2023-05-22T12:52:17;100692.22;;;21.18;58.46
36260;BME280;22296;50.824;5.644;2023-05-22T12:54:43;100687.06;;;21.20;58.53
36260;BME280;22296;50.824;5.644;2023-05-22T12:57:10;100693.81;;;21.19;58.49
36260;BME280;22296;50.824;5.644;2023-05-22T12:59:37;100693.81;;;21.19;58.52
36260;BME280;22296;50.824;5.644;2023-05-22T13:02:04;100689.84;;;21.20;58.50
36260;BME280;22296;50.824;5.644;2023-05-22T13:04:31;100689.84;;;21.20;58.52
36260;BME280;22296;50.824;5.644;2023-05-22T13:06:58;100683.09;;;21.21;58.38
36260;BME280;22296;50.824;5.644;2023-05-22T13:09:25;100684.25;;;21.20;58.40
36260;BME280;22296;50.824;5.644;2023-05-22T13:11:52;100687.66;;;21.29;58.45
36260;BME280;22296;50.824;5.644;2023-05-22T13:14:20;100685.47;;;21.38;58.35
36260;BME280;22296;50.824;5.644;2023-05-22T13:16:46;100685.25;;;21.46;58.32
36260;BME280;22296;50.824;5.644;2023-05-22T13:19:13;100681.03;;;21.56;58.04
36260;BME280;22296;50.824;5.644;2023-05-22T13:21:41;100680.28;;;21.59;58.21